Time;durP1;ratioP1;P1;durP2;ratioP2;P2;SDS_P1;SDS_P2;PMS_P1;PMS_P2;Temp;Humidity;BMP_temperature;BMP_pressure;BME280_temperature;BME280_humidity;BME280_pressure;Samples;Min_cycle;Max_cycle;Signal;HPM_P1;HPM_P2
2023/06/04 07:23:01;;;;;;;6.00;3.45;;;;;;;-145.79;41.39;77780.03;5323483;27;1234380;-67
2023/06/04 07:25:33;;;;;;;4.22;3.53;;;;;;;-145.79;41.29;77780.03;5342297;27;20067;-68
2023/06/04 07:28:05;;;;;;;4.13;3.47;;;;;;;-145.79;41.26;77771.53;5338014;27;20478;-69
2023/06/04 07:30:38;;;;;;;3.20;2.63;;;;;;;-145.79;41.00;77758.81;5325093;27;20031;-68
2023/06/04 07:33:09;;;;;;;5.60;3.63;;;;;;;-145.79;41.42;77735.50;5322288;28;20073;-68
2023/06/04 07:35:40;;;;;;;7.65;3.10;;;;;;;-145.79;40.94;77724.91;5332398;28;20024;-68
2023/06/04 07:38:12;;;;;;;3.55;3.17;;;;;;;-145.79;40.84;77714.31;5342786;27;20023;-68
2023/06/04 07:40:45;;;;;;;3.45;2.85;;;;;;;-145.79;40.48;77705.84;5343495;27;20431;-68
2023/06/04 07:43:16;;;;;;;5.20;2.92;;;;;;;-145.79;40.59;77699.47;5342427;27;20027;-69
2023/06/04 07:45:48;;;;;;;4.35;2.83;;;;;;;-145.79;39.60;77686.75;5340792;27;20262;-68
2023/06/04 07:48:19;;;;;;;6.72;3.42;;;;;;;-145.79;39.45;77674.03;5342636;28;20035;-68
2023/06/04 07:50:50;;;;;;;3.53;2.92;;;;;;;-145.79;39.05;77671.91;5342487;28;20038;-68
2023/06/04 07:53:22;;;;;;;4.28;3.20;;;;;;;-145.79;39.20;77659.19;5341778;27;20024;-68
2023/06/04 07:55:54;;;;;;;5.45;3.65;;;;;;;-145.79;37.90;77652.84;5342891;28;20035;-68
2023/06/04 07:58:25;;;;;;;5.45;2.53;;;;;;;-145.79;37.82;77635.88;5341560;27;20488;-69
2023/06/04 08:00:56;;;;;;;3.63;2.63;;;;;;;-145.79;37.46;77618.91;5339614;27;20071;-68
2023/06/04 08:03:27;;;;;;;4.95;3.17;;;;;;;-145.79;36.20;77610.44;5341613;28;20054;-68
2023/06/04 08:05:59;;;;;;;3.85;2.20;;;;;;;-145.79;36.38;77597.72;5341773;28;20465;-68
2023/06/04 08:08:30;;;;;;;3.58;2.53;;;;;;;-145.79;36.93;77574.41;5342637;27;20521;-68
2023/06/04 08:11:02;;;;;;;5.22;2.70;;;;;;;-145.79;36.69;77561.69;5341867;27;20034;-68
2023/06/04 08:13:33;;;;;;;3.53;2.20;;;;;;;-145.79;35.78;77557.44;5342506;27;20076;-69
2023/06/04 08:16:05;;;;;;;3.40;2.40;;;;;;;-145.79;36.03;77555.31;5342016;28;20026;-68
2023/06/04 08:18:40;;;;;;;5.13;2.63;;;;;;;-145.79;35.79;77555.31;5340752;27;20084;-69
2023/06/04 08:21:11;;;;;;;6.10;2.50;;;;;;;-145.79;35.91;77546.84;5342358;27;20127;-68
2023/06/04 08:23:43;;;;;;;4.85;3.10;;;;;;;-145.79;35.74;77527.78;5342609;27;20099;-67
2023/06/04 08:26:14;;;;;;;3.78;2.53;;;;;;;-145.79;35.34;77519.28;5341632;28;20011;-68
2023/06/04 08:28:49;;;;;;;4.43;2.35;;;;;;;-145.79;35.20;77495.97;5342327;28;20133;-67
2023/06/04 08:31:21;;;;;;;3.35;2.55;;;;;;;-145.79;34.17;77487.50;5340502;27;20028;-68
2023/06/04 08:33:52;;;;;;;3.50;2.53;;;;;;;-145.79;33.77;77483.25;5331110;27;20047;-69
2023/06/04 08:36:24;;;;;;;2.63;2.10;;;;;;;-145.79;33.71;77457.81;5326752;28;20380;-67
2023/06/04 08:38:55;;;;;;;4.63;2.80;;;;;;;-145.79;34.21;77445.09;5326422;28;20042;-68
2023/06/04 08:41:29;;;;;;;2.65;1.95;;;;;;;-145.79;33.90;77440.88;5328079;28;20038;-71
2023/06/04 08:44:03;;;;;;;2.10;1.90;;;;;;;-145.79;32.15;77428.16;5327973;28;20023;-67
2023/06/04 08:46:39;;;;;;;3.42;1.55;;;;;;;-145.79;31.61;77413.31;5327596;28;20020;-67
2023/06/04 08:49:12;;;;;;;2.30;1.52;;;;;;;-145.79;31.86;77409.06;5327782;28;20019;-67
2023/06/04 08:51:44;;;;;;;2.15;1.70;;;;;;;-145.79;31.57;77390.00;5327685;28;20077;-67
2023/06/04 08:54:18;;;;;;;1.83;1.60;;;;;;;-145.79;31.05;77394.22;5326594;28;20458;-67
2023/06/04 08:56:51;;;;;;;2.33;2.13;;;;;;;-145.79;30.65;77381.50;5327549;28;20032;-67
2023/06/04 08:59:23;;;;;;;4.05;1.92;;;;;;;-145.79;30.67;77360.31;5326965;28;20023;-67
2023/06/04 09:01:55;;;;;;;2.58;1.67;;;;;;;-145.79;30.59;77364.56;5327465;28;20046;-67
2023/06/04 09:04:29;;;;;;;3.40;1.30;;;;;;;-145.79;30.13;77360.31;5327552;28;20462;-66
2023/06/04 09:07:04;;;;;;;2.08;1.40;;;;;;;-145.79;30.43;77334.88;5321581;28;20516;-67
2023/06/04 09:09:38;;;;;;;;;;;;;;;-145.79;31.05;77326.41;5309486;28;20462;-66
2023/06/04 09:12:11;;;;;;;1.98;1.40;;;;;;;-145.79;29.97;77326.41;5326967;27;19923;-67
2023/06/04 09:14:42;;;;;;;2.83;1.40;;;;;;;-145.79;30.02;77326.41;5313382;28;20077;-68
2023/06/04 09:17:15;;;;;;;2.22;1.20;;;;;;;-145.79;29.02;77322.16;5305990;28;20451;-66
2023/06/04 09:19:46;;;;;;;2.20;1.70;;;;;;;-145.79;29.02;77317.94;5319017;28;20023;-67
2023/06/04 09:22:18;;;;;;;2.80;1.67;;;;;;;-145.79;29.51;77315.81;5326073;28;20074;-67
2023/06/04 09:24:50;;;;;;;3.75;2.40;;;;;;;-145.79;29.72;77305.22;5312055;28;20032;-67
2023/06/04 09:27:25;;;;;;;5.20;3.25;;;;;;;-145.79;29.78;77305.22;5317832;28;20374;-67
2023/06/04 09:29:58;;;;;;;2.92;2.38;;;;;;;-145.79;29.83;77284.00;5315618;28;20081;-68
2023/06/04 09:32:30;;;;;;;3.08;1.70;;;;;;;-145.79;29.50;77284.00;5315252;28;20094;-67
2023/06/04 09:35:31;;;;;;;2.85;1.40;;;;;;;-145.79;30.06;77254.34;5312658;28;20028;-66
2023/06/04 09:38:05;;;;;;;5.53;2.20;;;;;;;-145.79;29.85;77258.56;5305545;28;20533;-66
2023/06/04 09:40:37;;;;;;;2.58;1.83;;;;;;;-145.79;29.66;77247.97;5315156;28;20016;-67
2023/06/04 09:43:10;;;;;;;2.67;1.50;;;;;;;-145.79;29.40;77245.84;5314415;28;20030;-66
2023/06/04 09:45:41;;;;;;;4.60;2.80;;;;;;;-145.79;28.92;77237.38;5319147;28;20103;-67
2023/06/04 09:48:20;;;;;;;2.50;1.58;;;;;;;-145.79;29.24;77228.91;5314427;28;20530;-67
2023/06/04 09:50:51;;;;;;;2.13;1.30;;;;;;;-145.79;29.30;77220.44;5313576;28;20024;-66
2023/06/04 09:53:25;;;;;;;1.60;1.50;;;;;;;-145.79;29.15;77211.94;5316347;28;20377;-66
2023/06/04 09:55:58;;;;;;;2.13;1.75;;;;;;;-145.79;29.37;77216.19;5313799;28;20035;-66
2023/06/04 09:58:30;;;;;;;4.45;1.40;;;;;;;-145.79;29.34;77205.59;5315807;28;20027;-66
2023/06/04 10:01:06;;;;;;;4.20;1.33;;;;;;;-145.79;29.52;77190.75;5312755;28;20051;-66
2023/06/04 10:03:41;;;;;;;2.42;1.67;;;;;;;-145.79;29.56;77203.47;5318143;28;20098;-67
2023/06/04 10:06:14;;;;;;;3.15;1.58;;;;;;;-145.79;29.24;77171.69;5312770;28;20028;-67
2023/06/04 10:08:48;;;;;;;2.63;1.45;;;;;;;-145.79;29.32;77186.50;5315551;28;20107;-66
2023/06/04 10:11:30;;;;;;;2.67;1.35;;;;;;;-145.79;29.41;77175.91;5318423;28;20027;-67
2023/06/04 10:14:21;;;;;;;3.65;1.50;;;;;;;-145.79;30.23;77178.03;5318681;28;20057;-68
2023/06/04 10:16:56;;;;;;;4.65;1.65;;;;;;;-145.79;29.50;77161.06;5314857;28;20044;-67
2023/06/04 10:19:28;;;;;;;;;;;;;;;-145.79;29.98;77146.25;5318786;28;20032;-66
2023/06/04 10:21:59;;;;;;;2.65;1.25;;;;;;;-145.79;29.51;77148.34;5314694;28;19916;-66
2023/06/04 10:24:31;;;;;;;3.53;1.33;;;;;;;-145.79;29.22;77135.66;5311667;28;20027;-68
2023/06/04 10:27:10;;;;;;;1.73;1.40;;;;;;;-145.79;30.31;77131.41;5314367;28;20024;-67
2023/06/04 10:29:42;;;;;;;1.52;0.90;;;;;;;-145.79;29.13;77122.94;5315026;28;20020;-67
2023/06/04 10:32:18;;;;;;;2.08;1.40;;;;;;;-145.79;28.47;77125.03;5313797;28;20032;-67
2023/06/04 10:34:49;;;;;;;;;;;;;;;-145.79;28.48;77108.09;5318338;28;20035;-67
2023/06/04 10:37:25;;;;;;;3.05;1.30;;;;;;;-145.79;28.23;77122.94;5322288;28;20366;-67
2023/06/04 10:39:58;;;;;;;2.72;1.50;;;;;;;-145.79;28.31;77116.56;5319696;28;20070;-68
2023/06/04 10:42:37;;;;;;;2.38;1.58;;;;;;;-145.79;28.52;77108.09;5320889;28;20036;-68
2023/06/04 10:45:10;;;;;;;2.83;1.23;;;;;;;-145.79;28.99;77125.03;5311490;28;20363;-68
2023/06/04 10:47:41;;;;;;;4.00;1.10;;;;;;;-145.79;28.23;77108.09;5313818;28;20474;-70
2023/06/04 10:50:13;;;;;;;2.60;1.27;;;;;;;-145.79;28.14;77093.25;5315949;28;20030;-70
2023/06/04 10:52:55;;;;;;;2.08;1.20;;;;;;;-145.79;28.22;77093.25;5314360;28;20362;-69
2023/06/04 10:55:26;;;;;;;4.55;1.73;;;;;;;-145.79;28.26;77091.13;5314749;28;20027;-69
2023/06/04 10:58:00;;;;;;;3.83;1.50;;;;;;;-145.79;28.43;77067.81;5317334;28;20024;-69
2023/06/04 11:00:36;;;;;;;3.17;1.02;;;;;;;-145.79;28.07;77074.19;5310994;28;20019;-68
2023/06/04 11:03:10;;;;;;;2.72;1.23;;;;;;;-145.79;28.73;77063.59;5312095;28;20027;-69
2023/06/04 11:05:44;;;;;;;3.58;1.38;;;;;;;-145.79;27.79;77063.59;5314775;28;20466;-70
2023/06/04 11:08:28;;;;;;;6.30;1.38;;;;;;;-145.79;28.09;77055.09;5313364;28;20027;-68
2023/06/04 11:11:11;;;;;;;1.30;1.20;;;;;;;-145.79;28.07;77000.00;5316445;28;20479;-68
2023/06/04 11:13:43;;;;;;;5.05;3.60;;;;;;;-145.79;28.03;77010.59;5312720;28;20095;-69
2023/06/04 11:16:19;;;;;;;2.40;1.40;;;;;;;-145.79;28.30;77008.47;5314553;28;20087;-69
2023/06/04 11:18:58;;;;;;;1.25;1.08;;;;;;;-145.79;27.84;77016.94;5314989;28;20047;-69
2023/06/04 11:21:30;;;;;;;3.13;1.15;;;;;;;-145.79;27.27;77021.19;5315068;28;20036;-69
2023/06/04 11:24:02;;;;;;;3.17;1.40;;;;;;;-145.79;27.23;77000.00;5315447;28;20368;-68
2023/06/04 11:26:36;;;;;;;2.72;1.10;;;;;;;-145.79;26.96;76970.31;5316362;28;20020;-68
2023/06/04 11:29:11;;;;;;;3.05;1.20;;;;;;;-145.79;27.46;76997.88;5312059;28;20024;-68
2023/06/04 11:31:47;;;;;;;3.08;1.40;;;;;;;-145.79;26.93;76961.84;5314374;28;20020;-68
2023/06/04 11:34:25;;;;;;;1.50;1.13;;;;;;;-145.79;26.91;76974.56;5319661;28;20138;-68
2023/06/04 11:37:07;;;;;;;2.70;1.20;;;;;;;-145.79;26.97;76978.81;5314543;28;20034;-70
2023/06/04 11:39:40;;;;;;;1.63;1.17;;;;;;;-145.79;27.36;76974.56;5314482;28;20177;-70
2023/06/04 11:42:12;;;;;;;3.95;1.35;;;;;;;-145.79;27.45;76949.13;5312098;28;20382;-69
2023/06/04 11:44:48;;;;;;;2.58;1.10;;;;;;;-145.79;27.25;76949.13;5314663;28;20024;-70
2023/06/04 11:47:20;;;;;;;1.65;1.40;;;;;;;-145.79;26.78;76953.38;5313038;28;20043;-67
2023/06/04 11:49:56;;;;;;;12.55;10.88;;;;;;;-145.79;26.84;76957.59;5316452;28;20028;-68
2023/06/04 11:52:27;;;;;;;3.63;1.65;;;;;;;-145.79;27.18;76944.91;5310142;28;20370;-68
2023/06/04 11:54:59;;;;;;;1.30;1.08;;;;;;;-145.79;27.21;76930.06;5314036;28;20028;-69
2023/06/04 11:57:31;;;;;;;4.38;1.88;;;;;;;-145.79;26.73;76936.41;5309777;28;20031;-68
2023/06/04 12:00:05;;;;;;;3.38;1.85;;;;;;;-145.79;27.06;76902.50;5321618;28;20111;-68
2023/06/04 12:02:52;;;;;;;3.78;1.65;;;;;;;-145.79;27.50;76889.78;5320823;28;20028;-69
2023/06/04 12:05:30;;;;;;;1.38;1.20;;;;;;;-145.79;27.99;76872.84;5317914;28;20063;-69
2023/06/04 12:08:09;;;;;;;1.55;1.20;;;;;;;-145.79;27.57;76866.47;5303079;28;20077;-68
2023/06/04 12:10:43;;;;;;;3.47;1.52;;;;;;;-145.79;27.64;76866.47;5316098;28;20424;-69
2023/06/04 12:13:15;;;;;;;2.00;1.30;;;;;;;-145.79;27.57;76858.00;5326869;28;20043;-70
2023/06/04 12:15:52;;;;;;;2.20;1.40;;;;;;;-145.79;28.25;76866.47;5320148;28;20438;-71
2023/06/04 12:18:27;;;;;;;2.17;1.65;;;;;;;-145.79;28.71;76851.63;5315267;28;20126;-70
2023/06/04 12:20:58;;;;;;;3.33;2.00;;;;;;;-145.79;27.85;76838.94;5326239;28;20026;-71
2023/06/04 12:23:30;;;;;;;2.90;1.48;;;;;;;-145.79;27.45;76849.53;5309343;28;20024;-70
2023/06/04 12:26:03;;;;;;;5.47;1.50;;;;;;;-145.79;27.25;76849.53;5304603;28;20100;-69
2023/06/04 12:28:35;;;;;;;1.90;1.55;;;;;;;-145.79;27.69;76838.94;5304010;28;20027;-69
2023/06/04 12:31:16;;;;;;;3.10;1.77;;;;;;;-145.79;27.85;76843.16;5303553;28;20106;-71
2023/06/04 12:33:48;;;;;;;3.05;2.00;;;;;;;-145.79;27.44;76855.88;5319585;28;20057;-70
2023/06/04 12:36:19;;;;;;;5.32;1.90;;;;;;;-145.79;27.63;76821.97;5310286;28;20121;-70
2023/06/04 12:38:50;;;;;;;3.35;1.77;;;;;;;-145.79;27.21;76847.41;5305881;28;20027;-70
2023/06/04 12:41:22;;;;;;;2.15;1.95;;;;;;;-145.79;27.52;76862.25;5324539;28;20027;-70
2023/06/04 12:43:54;;;;;;;4.13;2.17;;;;;;;-145.79;27.99;76828.31;5325191;28;20490;-69
2023/06/04 12:46:26;;;;;;;7.90;6.43;;;;;;;-145.79;27.69;76805.00;5321404;28;20055;-70
2023/06/04 12:48:57;;;;;;;2.58;1.70;;;;;;;-145.79;28.33;76796.53;5312001;28;20184;-70
2023/06/04 12:51:29;;;;;;;3.58;1.60;;;;;;;-145.79;27.23;76749.91;5306060;28;20038;-70
2023/06/04 12:54:00;;;;;;;3.28;2.60;;;;;;;-145.79;26.98;76756.28;5326021;28;20108;-70
2023/06/04 12:56:31;;;;;;;2.15;1.80;;;;;;;-145.79;27.10;76771.09;5327573;28;20028;-70
2023/06/04 12:59:03;;;;;;;2.50;1.60;;;;;;;-145.79;27.32;76752.03;5317990;28;20054;-70
2023/06/04 13:01:34;;;;;;;3.53;1.77;;;;;;;-145.79;27.04;76758.38;5305806;28;20416;-70
2023/06/04 13:04:05;;;;;;;3.35;2.00;;;;;;;-145.79;27.97;76745.69;5305754;28;20023;-71
2023/06/04 13:06:37;;;;;;;2.80;1.30;;;;;;;-145.79;27.52;76754.16;5305637;28;20031;-71
2023/06/04 13:09:09;;;;;;;2.58;1.40;;;;;;;-145.79;27.56;76741.44;5314810;28;20035;-70
2023/06/04 13:11:42;;;;;;;4.75;2.00;;;;;;;-145.79;27.15;76737.19;5327315;28;20099;-71
2023/06/04 13:14:14;;;;;;;3.30;1.73;;;;;;;-145.79;27.64;76730.84;5326509;27;20391;-71
2023/06/04 13:16:48;;;;;;;3.42;1.83;;;;;;;-145.79;27.49;76720.25;5325604;28;20024;-71
2023/06/04 13:19:20;;;;;;;4.57;1.57;;;;;;;-145.79;27.14;76711.75;5314439;28;20033;-70
2023/06/04 13:21:51;;;;;;;3.03;2.72;;;;;;;-145.79;27.32;76694.81;5304967;28;20122;-70
2023/06/04 13:24:23;;;;;;;3.63;2.20;;;;;;;-145.79;27.15;76741.44;5304035;28;20103;-71
2023/06/04 13:26:55;;;;;;;2.65;2.13;;;;;;;-145.79;27.25;76707.53;5323957;28;20031;-69
2023/06/04 13:29:27;;;;;;;5.03;2.08;;;;;;;-145.79;27.52;76658.78;5305288;28;20024;-69
2023/06/04 13:32:01;;;;;;;3.95;1.40;;;;;;;-145.79;27.21;76635.47;5305408;28;20032;-70
2023/06/04 13:34:32;;;;;;;5.10;2.00;;;;;;;-145.79;26.67;76656.66;5304952;28;20020;-70
2023/06/04 13:37:04;;;;;;;4.43;2.08;;;;;;;-145.79;26.87;76646.06;5313380;28;20020;-69
2023/06/04 13:39:35;;;;;;;2.15;1.83;;;;;;;-145.79;27.03;76652.44;5325895;28;20072;-71
2023/06/04 13:42:06;;;;;;;3.63;1.45;;;;;;;-145.79;26.89;76658.78;5321377;28;20019;-72
2023/06/04 13:44:38;;;;;;;3.75;1.75;;;;;;;-145.79;27.02;76648.19;5322862;28;20028;-72
2023/06/04 13:47:09;;;;;;;3.90;1.83;;;;;;;-145.79;27.07;76620.63;5305463;28;20027;-71
2023/06/04 13:49:41;;;;;;;1.63;1.48;;;;;;;-145.79;26.69;76669.38;5302224;28;20022;-70
2023/06/04 13:52:21;;;;;;;3.20;1.80;;;;;;;-145.79;27.06;76631.22;5302957;28;20055;-70
2023/06/04 13:54:52;;;;;;;2.22;1.50;;;;;;;-145.79;26.93;76648.19;5303226;28;20028;-70
2023/06/04 13:57:28;;;;;;;4.07;2.28;;;;;;;-145.79;26.87;76610.03;5304056;28;20123;-71
2023/06/04 14:00:00;;;;;;;4.75;2.15;;;;;;;-145.79;26.84;76597.31;5312511;28;20035;-71
2023/06/04 14:02:32;;;;;;;1.95;1.60;;;;;;;-145.79;26.67;76567.66;5325327;28;20043;-71
2023/06/04 14:05:04;;;;;;;4.30;1.80;;;;;;;-145.79;26.92;76580.38;5326408;28;20512;-70
2023/06/04 14:07:36;;;;;;;2.08;1.50;;;;;;;-145.79;27.32;76584.59;5326284;28;20035;-70
2023/06/04 14:10:11;;;;;;;2.67;2.38;;;;;;;-145.79;26.46;76567.66;5325352;28;20070;-71
2023/06/04 14:12:43;;;;;;;2.78;1.85;;;;;;;-145.79;26.42;76546.47;5326087;28;20038;-70
2023/06/04 14:15:15;;;;;;;4.28;1.73;;;;;;;-145.79;26.25;76567.66;5326412;28;20102;-70
2023/06/04 14:17:47;;;;;;;2.90;1.80;;;;;;;-145.79;26.37;76546.47;5325199;28;20103;-70
2023/06/04 14:20:18;;;;;;;1.98;1.58;;;;;;;-145.79;26.40;76525.28;5326194;28;20020;-70
2023/06/04 14:22:50;;;;;;;2.58;1.52;;;;;;;-145.79;25.97;76567.66;5325016;28;20047;-70
2023/06/04 14:25:21;;;;;;;4.20;2.53;;;;;;;-145.79;26.14;76595.22;5325675;28;20020;-70
2023/06/04 14:27:55;;;;;;;2.53;1.67;;;;;;;-145.79;26.63;76544.34;5325516;28;20020;-70
2023/06/04 14:30:27;;;;;;;5.07;2.38;;;;;;;-145.79;26.64;76533.75;5324549;28;20077;-70
2023/06/04 14:32:58;;;;;;;4.30;2.58;;;;;;;-145.79;26.22;76516.78;5325882;28;20028;-70
2023/06/04 14:35:29;;;;;;;2.95;1.85;;;;;;;-145.79;26.34;76499.84;5325117;28;20051;-71
2023/06/04 14:38:00;;;;;;;4.45;1.80;;;;;;;-145.79;26.50;76491.38;5324799;28;20024;-71
2023/06/04 14:40:35;;;;;;;3.03;2.25;;;;;;;-145.79;26.44;76474.41;5325543;28;20356;-70
2023/06/04 14:43:06;;;;;;;1.90;1.73;;;;;;;-145.79;26.43;76476.53;5325524;28;20031;-71
2023/06/04 14:45:41;;;;;;;2.58;2.00;;;;;;;-145.79;25.82;76499.84;5324633;28;20049;-71
2023/06/04 14:48:12;;;;;;;3.63;2.10;;;;;;;-145.79;26.28;76506.19;5325473;28;20020;-70
2023/06/04 14:50:43;;;;;;;4.65;1.80;;;;;;;-145.79;25.91;76554.94;5325409;28;20111;-70
2023/06/04 14:53:15;;;;;;;1.88;1.60;;;;;;;-145.79;26.53;76529.50;5324498;28;20055;-71
2023/06/04 14:55:46;;;;;;;3.03;1.98;;;;;;;-145.79;25.97;76525.28;5325093;28;20491;-70
2023/06/04 14:58:18;;;;;;;2.78;1.70;;;;;;;-145.79;25.96;76552.81;5323755;28;20122;-70
2023/06/04 15:00:49;;;;;;;3.50;1.75;;;;;;;-145.79;26.26;76554.94;5325255;28;20493;-70
2023/06/04 15:03:21;;;;;;;2.50;1.77;;;;;;;-145.79;26.47;76546.47;5325626;28;20054;-69
2023/06/04 15:05:52;;;;;;;4.80;1.40;;;;;;;-145.79;26.59;76557.06;5324358;28;20026;-70
2023/06/04 15:08:24;;;;;;;2.35;1.60;;;;;;;-145.79;26.36;76546.47;5325226;28;20023;-69
2023/06/04 15:10:55;;;;;;;2.25;1.77;;;;;;;-145.79;26.73;76533.75;5325055;28;20089;-69
2023/06/04 15:13:27;;;;;;;4.15;2.45;;;;;;;-145.79;26.05;76538.00;5324240;28;20027;-70
2023/06/04 15:15:58;;;;;;;2.60;1.85;;;;;;;-145.79;26.49;76538.00;5325294;28;20023;-69
2023/06/04 15:18:29;;;;;;;3.03;2.20;;;;;;;-145.79;26.39;76538.00;5325131;28;20020;-70
2023/06/04 15:21:00;;;;;;;3.97;1.80;;;;;;;-145.79;26.76;76529.50;5324203;28;20030;-68
2023/06/04 15:23:32;;;;;;;4.28;1.80;;;;;;;-145.79;26.26;76554.94;5324954;28;20011;-69
2023/06/04 15:26:03;;;;;;;2.65;1.90;;;;;;;-145.79;26.98;76546.47;5324740;28;20067;-69
2023/06/04 15:28:34;;;;;;;10.98;9.88;;;;;;;-145.79;26.50;76538.00;5324666;28;20020;-70
2023/06/04 15:31:06;;;;;;;4.93;3.67;;;;;;;-145.79;26.77;76512.56;5325283;28;20416;-69
2023/06/04 15:33:37;;;;;;;2.92;1.80;;;;;;;-145.79;26.92;76516.78;5324197;28;20016;-70
2023/06/04 15:36:08;;;;;;;2.08;1.73;;;;;;;-145.79;26.74;76512.56;5324409;28;20031;-68
2023/06/04 15:38:40;;;;;;;3.88;2.00;;;;;;;-145.79;26.43;76546.47;5324558;28;20459;-69
2023/06/04 15:41:11;;;;;;;2.33;1.60;;;;;;;-145.79;26.77;76546.47;5323719;28;20381;-69
2023/06/04 15:43:42;;;;;;;3.30;1.90;;;;;;;-145.79;26.86;76548.59;5305812;28;20441;-69
2023/06/04 15:46:14;;;;;;;2.35;2.08;;;;;;;-145.79;27.10;76542.22;5307948;28;20044;-68
2023/06/04 15:48:45;;;;;;;3.33;1.70;;;;;;;-145.79;27.11;76548.59;5307218;28;20028;-69
2023/06/04 15:51:16;;;;;;;1.88;1.58;;;;;;;-145.79;27.02;76584.59;5307866;28;20022;-68
2023/06/04 15:53:48;;;;;;;2.53;2.13;;;;;;;-145.79;27.24;76565.53;5307777;28;20028;-69
2023/06/04 15:56:19;;;;;;;8.77;8.05;;;;;;;-145.79;27.46;76576.13;5306661;28;20115;-70
2023/06/04 15:58:51;;;;;;;11.43;10.48;;;;;;;-145.79;27.06;76576.13;5313861;28;20477;-70
2023/06/04 16:01:22;;;;;;;7.53;5.47;;;;;;;-145.79;27.29;76597.31;5327884;28;20031;-70
2023/06/04 16:03:54;;;;;;;4.03;2.60;;;;;;;-145.79;27.30;76580.38;5329547;28;20177;-70
2023/06/04 16:06:26;;;;;;;2.53;2.33;;;;;;;-145.79;27.03;76588.84;5328769;28;20039;-70
2023/06/04 16:08:57;;;;;;;30.90;28.05;;;;;;;-145.79;27.26;76554.94;5327840;27;20082;-70
2023/06/04 16:11:28;;;;;;;5.55;5.05;;;;;;;-145.79;27.58;76544.34;5328598;28;20141;-70
2023/06/04 16:13:59;;;;;;;3.15;2.38;;;;;;;-145.79;27.51;76559.19;5328578;28;20026;-69
2023/06/04 16:16:35;;;;;;;2.00;1.73;;;;;;;-145.79;28.12;76554.94;5327895;27;20015;-70
2023/06/04 16:19:06;;;;;;;;;;;;;;;-145.79;26.81;76512.56;5328918;28;20024;-71
2023/06/04 16:21:38;;;;;;;4.40;2.30;;;;;;;-145.79;27.00;76544.34;5328310;28;19938;-70
2023/06/04 16:24:09;;;;;;;4.28;2.00;;;;;;;-145.79;27.80;76557.06;5327384;28;20297;-70
2023/06/04 16:26:41;;;;;;;4.55;2.20;;;;;;;-145.79;27.44;76580.38;5327991;28;20012;-70
2023/06/04 16:29:15;;;;;;;3.13;2.47;;;;;;;-145.79;27.62;76578.25;5327906;28;20023;-70
2023/06/04 16:31:46;;;;;;;2.42;1.75;;;;;;;-145.79;27.79;76576.13;5327676;27;20450;-69
2023/06/04 16:34:18;;;;;;;2.45;2.15;;;;;;;-145.79;27.51;76554.94;5328203;28;20019;-69
2023/06/04 16:36:49;;;;;;;2.42;1.90;;;;;;;-145.79;27.47;76538.00;5327265;28;20046;-69
2023/06/04 16:39:20;;;;;;;2.15;1.65;;;;;;;-145.79;27.26;76538.00;5328285;27;20032;-69
2023/06/04 16:41:52;;;;;;;4.40;2.45;;;;;;;-145.79;27.29;76542.22;5328350;27;20042;-70
2023/06/04 16:44:23;;;;;;;4.78;1.90;;;;;;;-145.79;27.30;76514.69;5327202;28;20461;-70
2023/06/04 16:46:55;;;;;;;4.43;2.05;;;;;;;-145.79;27.44;76529.50;5327964;28;20019;-69
2023/06/04 16:49:26;;;;;;;3.75;2.25;;;;;;;-145.79;27.44;76525.28;5326479;28;20028;-69
2023/06/04 16:51:58;;;;;;;2.97;1.88;;;;;;;-145.79;27.49;76535.88;5327207;28;20531;-70
